sensor_id;sensor_type;location;lat;lon;timestamp;P1;durP1;ratioP1;P2;durP2;ratioP2
3465;SDS011;1747;48.884;9.160;2024-03-02T00:01:24;14.90;;;9.75;;
3465;SDS011;1747;48.884;9.160;2024-03-02T00:04:03;13.45;;;8.77;;
3465;SDS011;1747;48.884;9.160;2024-03-02T00:10:49;15.15;;;8.38;;
3465;SDS011;1747;48.884;9.160;2024-03-02T00:13:16;13.32;;;8.63;;
3465;SDS011;1747;48.884;9.160;2024-03-02T00:15:48;14.63;;;8.82;;
3465;SDS011;1747;48.884;9.160;2024-03-02T00:18:19;14.35;;;8.77;;
3465;SDS011;1747;48.884;9.160;2024-03-02T00:20:47;16.13;;;9.13;;
3465;SDS011;1747;48.884;9.160;2024-03-02T00:23:14;15.55;;;9.15;;
3465;SDS011;1747;48.884;9.160;2024-03-02T00:25:46;12.23;;;7.90;;
3465;SDS011;1747;48.884;9.160;2024-03-02T00:28:18;17.60;;;9.18;;
3465;SDS011;1747;48.884;9.160;2024-03-02T00:30:56;13.20;;;9.20;;
3465;SDS011;1747;48.884;9.160;2024-03-02T00:33:38;13.07;;;8.63;;
3465;SDS011;1747;48.884;9.160;2024-03-02T00:36:29;13.93;;;8.65;;
3465;SDS011;1747;48.884;9.160;2024-03-02T00:38:57;14.43;;;8.75;;
3465;SDS011;1747;48.884;9.160;2024-03-02T00:41:38;13.70;;;8.43;;
3465;SDS011;1747;48.884;9.160;2024-03-02T00:44:30;14.60;;;8.40;;
3465;SDS011;1747;48.884;9.160;2024-03-02T00:47:00;14.02;;;8.80;;
3465;SDS011;1747;48.884;9.160;2024-03-02T00:49:28;16.08;;;9.20;;
3465;SDS011;1747;48.884;9.160;2024-03-02T00:51:55;13.80;;;8.70;;
3465;SDS011;1747;48.884;9.160;2024-03-02T00:54:23;15.57;;;9.23;;
3465;SDS011;1747;48.884;9.160;2024-03-02T00:56:54;18.52;;;8.85;;
3465;SDS011;1747;48.884;9.160;2024-03-02T00:59:22;14.30;;;8.88;;
3465;SDS011;1747;48.884;9.160;2024-03-02T01:01:59;14.75;;;9.05;;
3465;SDS011;1747;48.884;9.160;2024-03-02T01:05:18;15.10;;;8.43;;
3465;SDS011;1747;48.884;9.160;2024-03-02T01:08:48;16.02;;;8.50;;
3465;SDS011;1747;48.884;9.160;2024-03-02T01:11:16;14.90;;;9.00;;
3465;SDS011;1747;48.884;9.160;2024-03-02T01:13:44;14.68;;;9.07;;
3465;SDS011;1747;48.884;9.160;2024-03-02T01:19:38;13.77;;;8.55;;
3465;SDS011;1747;48.884;9.160;2024-03-02T01:25:41;14.23;;;8.75;;
3465;SDS011;1747;48.884;9.160;2024-03-02T01:28:17;13.55;;;8.88;;
3465;SDS011;1747;48.884;9.160;2024-03-02T01:30:47;15.57;;;8.95;;
3465;SDS011;1747;48.884;9.160;2024-03-02T01:33:14;16.17;;;8.27;;
3465;SDS011;1747;48.884;9.160;2024-03-02T01:35:43;15.10;;;9.50;;
3465;SDS011;1747;48.884;9.160;2024-03-02T01:38:10;16.05;;;9.35;;
3465;SDS011;1747;48.884;9.160;2024-03-02T01:40:37;13.13;;;8.75;;
3465;SDS011;1747;48.884;9.160;2024-03-02T01:43:04;15.65;;;8.02;;
3465;SDS011;1747;48.884;9.160;2024-03-02T01:45:32;12.88;;;8.43;;
3465;SDS011;1747;48.884;9.160;2024-03-02T01:48:00;14.75;;;8.88;;
3465;SDS011;1747;48.884;9.160;2024-03-02T01:50:28;14.77;;;8.82;;
3465;SDS011;1747;48.884;9.160;2024-03-02T01:52:57;15.65;;;9.68;;
3465;SDS011;1747;48.884;9.160;2024-03-02T01:55:24;16.65;;;10.02;;
3465;SDS011;1747;48.884;9.160;2024-03-02T01:57:52;17.65;;;10.27;;
3465;SDS011;1747;48.884;9.160;2024-03-02T02:00:20;14.48;;;8.88;;
3465;SDS011;1747;48.884;9.160;2024-03-02T02:02:47;16.33;;;9.23;;
3465;SDS011;1747;48.884;9.160;2024-03-02T02:05:15;15.20;;;9.75;;
3465;SDS011;1747;48.884;9.160;2024-03-02T02:07:42;13.70;;;9.02;;
3465;SDS011;1747;48.884;9.160;2024-03-02T02:10:10;16.52;;;8.95;;
3465;SDS011;1747;48.884;9.160;2024-03-02T02:12:40;16.48;;;9.70;;
3465;SDS011;1747;48.884;9.160;2024-03-02T02:15:21;15.57;;;9.48;;
3465;SDS011;1747;48.884;9.160;2024-03-02T02:17:48;17.35;;;9.98;;
3465;SDS011;1747;48.884;9.160;2024-03-02T02:20:15;15.07;;;8.95;;
3465;SDS011;1747;48.884;9.160;2024-03-02T02:22:54;15.95;;;9.13;;
3465;SDS011;1747;48.884;9.160;2024-03-02T02:25:21;18.08;;;9.75;;
3465;SDS011;1747;48.884;9.160;2024-03-02T02:27:48;16.83;;;9.98;;
3465;SDS011;1747;48.884;9.160;2024-03-02T02:30:18;18.48;;;9.45;;
3465;SDS011;1747;48.884;9.160;2024-03-02T02:32:45;14.95;;;9.02;;
3465;SDS011;1747;48.884;9.160;2024-03-02T02:35:12;16.08;;;9.07;;
3465;SDS011;1747;48.884;9.160;2024-03-02T02:37:40;14.38;;;9.52;;
3465;SDS011;1747;48.884;9.160;2024-03-02T02:40:09;16.90;;;9.18;;
3465;SDS011;1747;48.884;9.160;2024-03-02T02:42:36;16.25;;;9.00;;
3465;SDS011;1747;48.884;9.160;2024-03-02T02:45:03;19.00;;;9.90;;
3465;SDS011;1747;48.884;9.160;2024-03-02T02:47:31;15.07;;;8.75;;
3465;SDS011;1747;48.884;9.160;2024-03-02T03:05:26;13.77;;;8.18;;
3465;SDS011;1747;48.884;9.160;2024-03-02T03:07:52;15.15;;;8.50;;
3465;SDS011;1747;48.884;9.160;2024-03-02T03:10:19;16.77;;;8.48;;
3465;SDS011;1747;48.884;9.160;2024-03-02T03:12:48;14.43;;;8.30;;
3465;SDS011;1747;48.884;9.160;2024-03-02T03:15:15;12.88;;;8.15;;
3465;SDS011;1747;48.884;9.160;2024-03-02T03:17:42;15.00;;;8.52;;
3465;SDS011;1747;48.884;9.160;2024-03-02T03:20:10;16.70;;;8.75;;
3465;SDS011;1747;48.884;9.160;2024-03-02T03:22:38;16.67;;;8.20;;
3465;SDS011;1747;48.884;9.160;2024-03-02T03:25:05;13.52;;;7.93;;
3465;SDS011;1747;48.884;9.160;2024-03-02T03:27:33;13.68;;;8.07;;
3465;SDS011;1747;48.884;9.160;2024-03-02T03:30:00;15.20;;;8.57;;
3465;SDS011;1747;48.884;9.160;2024-03-02T03:32:27;16.65;;;9.35;;
3465;SDS011;1747;48.884;9.160;2024-03-02T03:34:54;14.88;;;8.63;;
3465;SDS011;1747;48.884;9.160;2024-03-02T03:37:21;13.00;;;7.95;;
3465;SDS011;1747;48.884;9.160;2024-03-02T03:39:49;13.32;;;8.05;;
3465;SDS011;1747;48.884;9.160;2024-03-02T03:42:15;13.27;;;8.18;;
3465;SDS011;1747;48.884;9.160;2024-03-02T03:44:42;14.85;;;8.82;;
3465;SDS011;1747;48.884;9.160;2024-03-02T03:47:09;14.85;;;8.45;;
3465;SDS011;1747;48.884;9.160;2024-03-02T03:49:36;17.00;;;8.90;;
3465;SDS011;1747;48.884;9.160;2024-03-02T03:52:03;16.15;;;8.20;;
3465;SDS011;1747;48.884;9.160;2024-03-02T03:54:30;17.15;;;8.88;;
3465;SDS011;1747;48.884;9.160;2024-03-02T03:56:58;14.27;;;8.60;;
3465;SDS011;1747;48.884;9.160;2024-03-02T03:59:25;14.57;;;8.60;;
3465;SDS011;1747;48.884;9.160;2024-03-02T04:01:52;14.95;;;8.57;;
3465;SDS011;1747;48.884;9.160;2024-03-02T04:04:19;16.25;;;9.70;;
3465;SDS011;1747;48.884;9.160;2024-03-02T04:06:45;16.33;;;9.68;;
3465;SDS011;1747;48.884;9.160;2024-03-02T04:09:12;16.98;;;9.48;;
3465;SDS011;1747;48.884;9.160;2024-03-02T04:11:39;20.80;;;9.65;;
3465;SDS011;1747;48.884;9.160;2024-03-02T04:14:07;16.00;;;9.15;;
3465;SDS011;1747;48.884;9.160;2024-03-02T04:16:35;18.23;;;8.77;;
3465;SDS011;1747;48.884;9.160;2024-03-02T04:19:01;16.40;;;9.70;;
3465;SDS011;1747;48.884;9.160;2024-03-02T04:21:29;17.02;;;9.35;;
3465;SDS011;1747;48.884;9.160;2024-03-02T04:23:55;18.20;;;9.73;;
3465;SDS011;1747;48.884;9.160;2024-03-02T04:26:24;18.88;;;9.70;;
3465;SDS011;1747;48.884;9.160;2024-03-02T04:28:51;16.83;;;10.07;;
3465;SDS011;1747;48.884;9.160;2024-03-02T04:31:19;16.40;;;9.70;;
3465;SDS011;1747;48.884;9.160;2024-03-02T04:33:46;19.88;;;9.60;;
3465;SDS011;1747;48.884;9.160;2024-03-02T04:36:13;20.77;;;9.75;;
3465;SDS011;1747;48.884;9.160;2024-03-02T04:38:40;19.55;;;10.38;;
3465;SDS011;1747;48.884;9.160;2024-03-02T04:41:07;15.68;;;9.10;;
3465;SDS011;1747;48.884;9.160;2024-03-02T04:43:34;18.15;;;9.52;;
3465;SDS011;1747;48.884;9.160;2024-03-02T04:46:01;17.45;;;10.00;;
3465;SDS011;1747;48.884;9.160;2024-03-02T04:48:29;15.18;;;9.10;;
3465;SDS011;1747;48.884;9.160;2024-03-02T04:50:56;17.10;;;9.35;;
3465;SDS011;1747;48.884;9.160;2024-03-02T04:53:22;18.20;;;9.25;;
3465;SDS011;1747;48.884;9.160;2024-03-02T04:55:49;19.88;;;9.65;;
3465;SDS011;1747;48.884;9.160;2024-03-02T04:58:51;17.77;;;9.70;;
3465;SDS011;1747;48.884;9.160;2024-03-02T05:01:18;17.50;;;9.52;;
3465;SDS011;1747;48.884;9.160;2024-03-02T05:03:46;16.30;;;9.00;;
3465;SDS011;1747;48.884;9.160;2024-03-02T05:06:13;14.90;;;8.88;;
3465;SDS011;1747;48.884;9.160;2024-03-02T05:08:39;16.40;;;9.15;;
3465;SDS011;1747;48.884;9.160;2024-03-02T05:11:06;16.00;;;8.77;;
3465;SDS011;1747;48.884;9.160;2024-03-02T05:13:50;13.90;;;8.65;;
3465;SDS011;1747;48.884;9.160;2024-03-02T05:16:17;15.60;;;8.45;;
3465;SDS011;1747;48.884;9.160;2024-03-02T05:18:45;18.88;;;9.20;;
3465;SDS011;1747;48.884;9.160;2024-03-02T05:21:12;15.30;;;8.52;;
3465;SDS011;1747;48.884;9.160;2024-03-02T05:23:39;14.27;;;8.80;;
3465;SDS011;1747;48.884;9.160;2024-03-02T05:26:06;17.52;;;8.93;;
3465;SDS011;1747;48.884;9.160;2024-03-02T05:28:33;13.13;;;8.57;;
3465;SDS011;1747;48.884;9.160;2024-03-02T05:31:00;16.58;;;9.05;;
3465;SDS011;1747;48.884;9.160;2024-03-02T05:33:26;18.65;;;9.32;;
3465;SDS011;1747;48.884;9.160;2024-03-02T05:35:56;20.70;;;9.63;;
3465;SDS011;1747;48.884;9.160;2024-03-02T05:38:23;17.02;;;9.00;;
3465;SDS011;1747;48.884;9.160;2024-03-02T05:40:50;16.42;;;9.30;;
3465;SDS011;1747;48.884;9.160;2024-03-02T05:43:16;15.60;;;8.32;;
3465;SDS011;1747;48.884;9.160;2024-03-02T05:45:45;16.77;;;8.88;;
3465;SDS011;1747;48.884;9.160;2024-03-02T05:48:12;17.25;;;9.70;;
3465;SDS011;1747;48.884;9.160;2024-03-02T05:50:39;17.08;;;9.45;;
3465;SDS011;1747;48.884;9.160;2024-03-02T05:53:07;17.17;;;9.48;;
3465;SDS011;1747;48.884;9.160;2024-03-02T05:55:34;17.23;;;9.55;;
3465;SDS011;1747;48.884;9.160;2024-03-02T05:58:00;16.85;;;8.82;;
3465;SDS011;1747;48.884;9.160;2024-03-02T06:00:42;16.35;;;9.00;;
3465;SDS011;1747;48.884;9.160;2024-03-02T06:03:09;15.85;;;9.18;;
3465;SDS011;1747;48.884;9.160;2024-03-02T06:05:36;18.05;;;9.77;;
3465;SDS011;1747;48.884;9.160;2024-03-02T06:08:03;15.38;;;8.77;;
3465;SDS011;1747;48.884;9.160;2024-03-02T06:10:31;16.75;;;9.80;;
3465;SDS011;1747;48.884;9.160;2024-03-02T06:12:58;15.48;;;8.88;;
3465;SDS011;1747;48.884;9.160;2024-03-02T06:15:25;16.08;;;8.75;;
3465;SDS011;1747;48.884;9.160;2024-03-02T06:17:52;14.57;;;8.75;;
3465;SDS011;1747;48.884;9.160;2024-03-02T06:20:19;17.65;;;9.90;;
3465;SDS011;1747;48.884;9.160;2024-03-02T06:22:46;16.50;;;9.00;;
3465;SDS011;1747;48.884;9.160;2024-03-02T06:25:13;18.40;;;9.40;;
3465;SDS011;1747;48.884;9.160;2024-03-02T06:27:41;21.38;;;10.05;;
3465;SDS011;1747;48.884;9.160;2024-03-02T06:30:07;16.65;;;9.10;;
3465;SDS011;1747;48.884;9.160;2024-03-02T06:32:35;17.60;;;9.88;;
3465;SDS011;1747;48.884;9.160;2024-03-02T06:35:01;16.55;;;9.35;;
3465;SDS011;1747;48.884;9.160;2024-03-02T06:37:29;16.33;;;9.23;;
3465;SDS011;1747;48.884;9.160;2024-03-02T06:39:56;17.50;;;9.88;;
3465;SDS011;1747;48.884;9.160;2024-03-02T06:42:23;19.10;;;10.25;;
3465;SDS011;1747;48.884;9.160;2024-03-02T06:44:51;19.58;;;10.35;;
3465;SDS011;1747;48.884;9.160;2024-03-02T06:47:18;18.40;;;10.30;;
3465;SDS011;1747;48.884;9.160;2024-03-02T06:49:45;16.88;;;9.55;;
3465;SDS011;1747;48.884;9.160;2024-03-02T06:52:12;24.73;;;10.70;;
3465;SDS011;1747;48.884;9.160;2024-03-02T06:54:39;17.20;;;10.75;;
3465;SDS011;1747;48.884;9.160;2024-03-02T06:57:05;18.48;;;9.52;;
3465;SDS011;1747;48.884;9.160;2024-03-02T06:59:32;19.20;;;10.35;;
3465;SDS011;1747;48.884;9.160;2024-03-02T07:02:00;20.38;;;10.70;;
3465;SDS011;1747;48.884;9.160;2024-03-02T07:04:27;17.52;;;10.05;;
3465;SDS011;1747;48.884;9.160;2024-03-02T07:06:54;17.73;;;10.10;;
3465;SDS011;1747;48.884;9.160;2024-03-02T07:09:21;20.08;;;10.70;;
3465;SDS011;1747;48.884;9.160;2024-03-02T07:11:48;19.23;;;10.68;;
3465;SDS011;1747;48.884;9.160;2024-03-02T07:14:15;17.77;;;10.25;;
3465;SDS011;1747;48.884;9.160;2024-03-02T07:16:42;19.10;;;10.32;;
3465;SDS011;1747;48.884;9.160;2024-03-02T07:19:10;19.38;;;10.82;;
3465;SDS011;1747;48.884;9.160;2024-03-02T07:21:36;18.33;;;10.73;;
3465;SDS011;1747;48.884;9.160;2024-03-02T07:24:04;15.68;;;10.32;;
3465;SDS011;1747;48.884;9.160;2024-03-02T07:26:31;15.55;;;9.70;;
3465;SDS011;1747;48.884;9.160;2024-03-02T07:28:58;17.58;;;9.85;;
3465;SDS011;1747;48.884;9.160;2024-03-02T07:31:25;21.48;;;11.13;;
3465;SDS011;1747;48.884;9.160;2024-03-02T07:33:52;16.50;;;10.05;;
3465;SDS011;1747;48.884;9.160;2024-03-02T07:36:20;17.05;;;10.00;;
3465;SDS011;1747;48.884;9.160;2024-03-02T07:38:47;21.05;;;10.75;;
3465;SDS011;1747;48.884;9.160;2024-03-02T07:41:15;19.10;;;10.82;;
3465;SDS011;1747;48.884;9.160;2024-03-02T07:43:42;18.95;;;10.73;;
3465;SDS011;1747;48.884;9.160;2024-03-02T07:46:10;20.33;;;10.57;;
3465;SDS011;1747;48.884;9.160;2024-03-02T07:48:37;19.83;;;10.70;;
3465;SDS011;1747;48.884;9.160;2024-03-02T07:51:04;19.45;;;11.27;;
3465;SDS011;1747;48.884;9.160;2024-03-02T07:53:33;18.55;;;9.93;;
3465;SDS011;1747;48.884;9.160;2024-03-02T07:55:59;14.63;;;9.10;;
3465;SDS011;1747;48.884;9.160;2024-03-02T07:58:27;14.70;;;9.07;;
3465;SDS011;1747;48.884;9.160;2024-03-02T08:00:55;17.70;;;10.23;;
3465;SDS011;1747;48.884;9.160;2024-03-02T08:03:22;17.77;;;9.35;;
3465;SDS011;1747;48.884;9.160;2024-03-02T08:05:49;16.20;;;8.82;;
3465;SDS011;1747;48.884;9.160;2024-03-02T08:08:16;13.38;;;8.52;;
3465;SDS011;1747;48.884;9.160;2024-03-02T08:10:44;17.73;;;8.63;;
3465;SDS011;1747;48.884;9.160;2024-03-02T08:13:11;14.85;;;8.02;;
3465;SDS011;1747;48.884;9.160;2024-03-02T08:15:38;14.82;;;8.73;;
3465;SDS011;1747;48.884;9.160;2024-03-02T08:18:05;13.15;;;8.20;;
3465;SDS011;1747;48.884;9.160;2024-03-02T08:20:33;15.57;;;8.35;;
3465;SDS011;1747;48.884;9.160;2024-03-02T08:22:59;12.35;;;8.13;;
3465;SDS011;1747;48.884;9.160;2024-03-02T08:25:26;13.68;;;8.57;;
3465;SDS011;1747;48.884;9.160;2024-03-02T08:27:54;16.17;;;8.30;;
3465;SDS011;1747;48.884;9.160;2024-03-02T08:30:21;14.35;;;8.40;;
3465;SDS011;1747;48.884;9.160;2024-03-02T08:32:48;13.05;;;8.18;;
3465;SDS011;1747;48.884;9.160;2024-03-02T08:35:14;16.02;;;8.50;;
3465;SDS011;1747;48.884;9.160;2024-03-02T08:37:42;15.05;;;8.48;;
3465;SDS011;1747;48.884;9.160;2024-03-02T08:40:09;14.25;;;8.55;;
3465;SDS011;1747;48.884;9.160;2024-03-02T08:42:36;13.20;;;7.60;;
3465;SDS011;1747;48.884;9.160;2024-03-02T08:45:05;12.95;;;7.97;;
3465;SDS011;1747;48.884;9.160;2024-03-02T08:47:33;13.40;;;7.75;;
3465;SDS011;1747;48.884;9.160;2024-03-02T08:50:00;11.93;;;7.60;;
3465;SDS011;1747;48.884;9.160;2024-03-02T08:52:29;13.45;;;7.97;;
3465;SDS011;1747;48.884;9.160;2024-03-02T08:54:55;10.40;;;7.10;;
3465;SDS011;1747;48.884;9.160;2024-03-02T08:57:22;10.82;;;7.20;;
3465;SDS011;1747;48.884;9.160;2024-03-02T08:59:49;11.25;;;6.97;;
3465;SDS011;1747;48.884;9.160;2024-03-02T09:02:17;11.27;;;6.63;;
3465;SDS011;1747;48.884;9.160;2024-03-02T09:04:44;11.77;;;6.55;;
3465;SDS011;1747;48.884;9.160;2024-03-02T09:07:11;11.02;;;6.15;;
3465;SDS011;1747;48.884;9.160;2024-03-02T09:09:38;11.00;;;6.82;;
3465;SDS011;1747;48.884;9.160;2024-03-02T09:12:06;9.05;;;5.75;;
3465;SDS011;1747;48.884;9.160;2024-03-02T09:14:34;11.18;;;6.57;;
3465;SDS011;1747;48.884;9.160;2024-03-02T09:17:02;9.38;;;5.97;;
3465;SDS011;1747;48.884;9.160;2024-03-02T09:19:31;9.18;;;5.68;;
3465;SDS011;1747;48.884;9.160;2024-03-02T10:24:42;6.75;;;4.53;;
3465;SDS011;1747;48.884;9.160;2024-03-02T10:27:11;7.35;;;4.68;;
3465;SDS011;1747;48.884;9.160;2024-03-02T10:29:42;7.13;;;4.60;;
3465;SDS011;1747;48.884;9.160;2024-03-02T10:32:11;6.45;;;4.60;;
3465;SDS011;1747;48.884;9.160;2024-03-02T10:37:07;7.15;;;4.28;;
3465;SDS011;1747;48.884;9.160;2024-03-02T10:39:34;5.47;;;4.10;;
3465;SDS011;1747;48.884;9.160;2024-03-02T10:42:04;4.47;;;3.40;;
3465;SDS011;1747;48.884;9.160;2024-03-02T10:44:32;7.80;;;4.13;;
3465;SDS011;1747;48.884;9.160;2024-03-02T10:47:00;4.88;;;3.63;;
3465;SDS011;1747;48.884;9.160;2024-03-02T10:49:28;7.68;;;3.90;;
3465;SDS011;1747;48.884;9.160;2024-03-02T10:51:56;5.45;;;3.60;;
3465;SDS011;1747;48.884;9.160;2024-03-02T10:54:23;3.72;;;3.10;;
3465;SDS011;1747;48.884;9.160;2024-03-02T10:56:54;3.47;;;2.90;;
3465;SDS011;1747;48.884;9.160;2024-03-02T10:59:28;4.57;;;3.75;;
3465;SDS011;1747;48.884;9.160;2024-03-02T11:02:01;4.90;;;3.38;;
3465;SDS011;1747;48.884;9.160;2024-03-02T11:04:29;7.25;;;3.15;;
3465;SDS011;1747;48.884;9.160;2024-03-02T11:06:59;4.47;;;2.70;;
3465;SDS011;1747;48.884;9.160;2024-03-02T11:09:29;5.07;;;2.92;;
3465;SDS011;1747;48.884;9.160;2024-03-02T11:12:00;4.15;;;3.10;;
3465;SDS011;1747;48.884;9.160;2024-03-02T11:14:31;4.47;;;3.30;;
3465;SDS011;1747;48.884;9.160;2024-03-02T11:17:00;3.35;;;2.58;;
3465;SDS011;1747;48.884;9.160;2024-03-02T11:19:30;3.28;;;2.45;;
3465;SDS011;1747;48.884;9.160;2024-03-02T11:21:59;3.70;;;2.15;;
3465;SDS011;1747;48.884;9.160;2024-03-02T11:24:31;5.70;;;2.20;;
3465;SDS011;1747;48.884;9.160;2024-03-02T11:27:02;2.60;;;2.00;;
3465;SDS011;1747;48.884;9.160;2024-03-02T11:29:44;3.58;;;2.30;;
3465;SDS011;1747;48.884;9.160;2024-03-02T11:32:20;3.20;;;2.10;;
3465;SDS011;1747;48.884;9.160;2024-03-02T11:34:49;2.95;;;2.10;;
3465;SDS011;1747;48.884;9.160;2024-03-02T11:37:17;2.55;;;1.65;;
3465;SDS011;1747;48.884;9.160;2024-03-02T11:39:46;2.60;;;1.80;;
3465;SDS011;1747;48.884;9.160;2024-03-02T11:42:15;4.47;;;2.03;;
3465;SDS011;1747;48.884;9.160;2024-03-02T11:44:44;2.13;;;1.73;;
3465;SDS011;1747;48.884;9.160;2024-03-02T11:47:13;2.55;;;2.20;;
3465;SDS011;1747;48.884;9.160;2024-03-02T11:49:42;3.35;;;2.15;;
3465;SDS011;1747;48.884;9.160;2024-03-02T11:52:10;2.70;;;2.00;;
3465;SDS011;1747;48.884;9.160;2024-03-02T11:54:40;3.00;;;1.90;;
3465;SDS011;1747;48.884;9.160;2024-03-02T11:57:11;2.60;;;1.73;;
3465;SDS011;1747;48.884;9.160;2024-03-02T11:59:39;1.73;;;1.38;;
3465;SDS011;1747;48.884;9.160;2024-03-02T12:02:12;2.45;;;1.50;;
3465;SDS011;1747;48.884;9.160;2024-03-02T12:04:42;2.42;;;1.20;;
3465;SDS011;1747;48.884;9.160;2024-03-02T12:07:10;1.90;;;1.45;;
3465;SDS011;1747;48.884;9.160;2024-03-02T12:09:37;3.22;;;1.52;;
3465;SDS011;1747;48.884;9.160;2024-03-02T12:12:04;1.98;;;1.50;;
3465;SDS011;1747;48.884;9.160;2024-03-02T12:14:32;4.03;;;1.60;;
3465;SDS011;1747;48.884;9.160;2024-03-02T12:16:59;5.07;;;1.90;;
3465;SDS011;1747;48.884;9.160;2024-03-02T12:19:28;4.32;;;1.90;;
3465;SDS011;1747;48.884;9.160;2024-03-02T12:21:55;3.78;;;2.10;;
3465;SDS011;1747;48.884;9.160;2024-03-02T12:24:23;3.50;;;1.70;;
3465;SDS011;1747;48.884;9.160;2024-03-02T12:26:52;5.47;;;1.90;;
3465;SDS011;1747;48.884;9.160;2024-03-02T12:29:20;4.88;;;1.60;;
3465;SDS011;1747;48.884;9.160;2024-03-02T12:31:47;2.55;;;1.60;;
3465;SDS011;1747;48.884;9.160;2024-03-02T12:34:15;1.90;;;1.58;;
3465;SDS011;1747;48.884;9.160;2024-03-02T12:36:45;3.00;;;1.55;;
3465;SDS011;1747;48.884;9.160;2024-03-02T12:39:14;1.65;;;1.40;;
3465;SDS011;1747;48.884;9.160;2024-03-02T12:41:41;2.85;;;1.23;;
3465;SDS011;1747;48.884;9.160;2024-03-02T12:44:08;2.17;;;1.38;;
3465;SDS011;1747;48.884;9.160;2024-03-02T12:46:35;1.20;;;1.00;;
3465;SDS011;1747;48.884;9.160;2024-03-02T12:49:07;1.33;;;1.20;;
3465;SDS011;1747;48.884;9.160;2024-03-02T12:51:37;1.10;;;0.95;;
3465;SDS011;1747;48.884;9.160;2024-03-02T12:54:08;1.20;;;1.10;;
3465;SDS011;1747;48.884;9.160;2024-03-02T12:56:35;1.70;;;1.20;;
3465;SDS011;1747;48.884;9.160;2024-03-02T12:59:03;3.33;;;1.25;;
3465;SDS011;1747;48.884;9.160;2024-03-02T13:01:30;1.35;;;0.90;;
3465;SDS011;1747;48.884;9.160;2024-03-02T13:03:58;0.80;;;0.63;;
3465;SDS011;1747;48.884;9.160;2024-03-02T13:06:25;0.90;;;0.60;;
3465;SDS011;1747;48.884;9.160;2024-03-02T13:08:53;1.98;;;0.60;;
3465;SDS011;1747;48.884;9.160;2024-03-02T13:11:23;0.63;;;0.60;;
3465;SDS011;1747;48.884;9.160;2024-03-02T13:13:53;0.65;;;0.50;;
3465;SDS011;1747;48.884;9.160;2024-03-02T13:16:20;0.75;;;0.57;;
3465;SDS011;1747;48.884;9.160;2024-03-02T13:18:47;1.42;;;0.60;;
3465;SDS011;1747;48.884;9.160;2024-03-02T13:21:16;1.55;;;0.70;;
3465;SDS011;1747;48.884;9.160;2024-03-02T13:23:43;0.80;;;0.80;;
3465;SDS011;1747;48.884;9.160;2024-03-02T13:26:10;1.77;;;0.80;;
3465;SDS011;1747;48.884;9.160;2024-03-02T13:28:39;1.20;;;0.73;;
3465;SDS011;1747;48.884;9.160;2024-03-02T13:31:06;1.38;;;0.90;;
3465;SDS011;1747;48.884;9.160;2024-03-02T13:33:33;0.75;;;0.75;;
3465;SDS011;1747;48.884;9.160;2024-03-02T13:36:00;2.08;;;0.85;;
3465;SDS011;1747;48.884;9.160;2024-03-02T13:38:28;2.10;;;0.90;;
3465;SDS011;1747;48.884;9.160;2024-03-02T13:40:55;2.00;;;0.60;;
3465;SDS011;1747;48.884;9.160;2024-03-02T13:43:25;0.95;;;0.82;;
3465;SDS011;1747;48.884;9.160;2024-03-02T13:45:54;0.88;;;0.75;;
3465;SDS011;1747;48.884;9.160;2024-03-02T13:48:21;0.80;;;0.80;;
3465;SDS011;1747;48.884;9.160;2024-03-02T13:50:48;1.15;;;0.85;;
3465;SDS011;1747;48.884;9.160;2024-03-02T13:53:15;0.90;;;0.90;;
3465;SDS011;1747;48.884;9.160;2024-03-02T14:07:58;0.75;;;0.75;;
3465;SDS011;1747;48.884;9.160;2024-03-02T14:10:26;1.65;;;0.90;;
3465;SDS011;1747;48.884;9.160;2024-03-02T14:13:01;1.08;;;0.98;;
3465;SDS011;1747;48.884;9.160;2024-03-02T15:46:59;2.10;;;1.40;;
3465;SDS011;1747;48.884;9.160;2024-03-02T15:49:26;2.00;;;1.13;;
3465;SDS011;1747;48.884;9.160;2024-03-02T15:51:54;2.22;;;1.38;;
3465;SDS011;1747;48.884;9.160;2024-03-02T15:54:21;5.30;;;1.30;;
3465;SDS011;1747;48.884;9.160;2024-03-02T15:56:48;1.88;;;1.50;;
3465;SDS011;1747;48.884;9.160;2024-03-02T15:59:15;2.42;;;1.50;;
3465;SDS011;1747;48.884;9.160;2024-03-02T16:01:42;1.65;;;1.38;;
3465;SDS011;1747;48.884;9.160;2024-03-02T16:04:10;3.50;;;2.22;;
3465;SDS011;1747;48.884;9.160;2024-03-02T16:06:37;1.88;;;1.55;;
3465;SDS011;1747;48.884;9.160;2024-03-02T16:09:04;2.15;;;1.40;;
3465;SDS011;1747;48.884;9.160;2024-03-02T16:11:35;1.90;;;1.30;;
3465;SDS011;1747;48.884;9.160;2024-03-02T16:14:02;2.72;;;1.92;;
3465;SDS011;1747;48.884;9.160;2024-03-02T16:16:29;3.30;;;2.00;;
3465;SDS011;1747;48.884;9.160;2024-03-02T16:18:56;2.53;;;1.90;;
3465;SDS011;1747;48.884;9.160;2024-03-02T16:21:24;5.32;;;2.58;;
3465;SDS011;1747;48.884;9.160;2024-03-02T16:23:51;8.00;;;3.83;;
3465;SDS011;1747;48.884;9.160;2024-03-02T16:26:18;9.18;;;5.05;;
3465;SDS011;1747;48.884;9.160;2024-03-02T16:28:46;6.53;;;4.30;;
3465;SDS011;1747;48.884;9.160;2024-03-02T16:31:12;5.82;;;3.25;;
3465;SDS011;1747;48.884;9.160;2024-03-02T16:33:40;5.18;;;2.78;;
3465;SDS011;1747;48.884;9.160;2024-03-02T16:36:07;2.10;;;1.90;;
3465;SDS011;1747;48.884;9.160;2024-03-02T16:38:36;4.28;;;1.75;;
3465;SDS011;1747;48.884;9.160;2024-03-02T16:41:03;3.53;;;1.95;;
3465;SDS011;1747;48.884;9.160;2024-03-02T16:43:30;3.13;;;1.73;;
3465;SDS011;1747;48.884;9.160;2024-03-02T16:45:57;2.65;;;1.45;;
3465;SDS011;1747;48.884;9.160;2024-03-02T16:48:24;4.15;;;1.92;;
3465;SDS011;1747;48.884;9.160;2024-03-02T16:50:51;2.65;;;1.67;;
3465;SDS011;1747;48.884;9.160;2024-03-02T16:53:18;2.45;;;1.95;;
3465;SDS011;1747;48.884;9.160;2024-03-02T16:55:46;2.25;;;1.55;;
3465;SDS011;1747;48.884;9.160;2024-03-02T16:58:13;3.97;;;1.50;;
3465;SDS011;1747;48.884;9.160;2024-03-02T17:00:43;2.55;;;1.70;;
3465;SDS011;1747;48.884;9.160;2024-03-02T17:03:10;3.90;;;2.08;;
3465;SDS011;1747;48.884;9.160;2024-03-02T17:05:37;4.10;;;1.80;;
3465;SDS011;1747;48.884;9.160;2024-03-02T17:08:04;3.58;;;1.92;;
3465;SDS011;1747;48.884;9.160;2024-03-02T17:10:31;3.85;;;2.10;;
3465;SDS011;1747;48.884;9.160;2024-03-02T17:12:59;3.13;;;2.20;;
3465;SDS011;1747;48.884;9.160;2024-03-02T17:15:26;3.72;;;2.50;;
3465;SDS011;1747;48.884;9.160;2024-03-02T17:17:53;3.17;;;2.38;;
3465;SDS011;1747;48.884;9.160;2024-03-02T17:20:20;3.95;;;2.38;;
3465;SDS011;1747;48.884;9.160;2024-03-02T17:22:47;5.22;;;2.80;;
3465;SDS011;1747;48.884;9.160;2024-03-02T17:25:14;3.30;;;2.72;;
3465;SDS011;1747;48.884;9.160;2024-03-02T17:27:41;3.55;;;2.38;;
3465;SDS011;1747;48.884;9.160;2024-03-02T17:30:10;4.25;;;2.72;;
3465;SDS011;1747;48.884;9.160;2024-03-02T17:32:38;7.97;;;3.15;;
3465;SDS011;1747;48.884;9.160;2024-03-02T17:35:06;5.82;;;3.70;;
3465;SDS011;1747;48.884;9.160;2024-03-02T17:37:33;6.78;;;4.07;;
3465;SDS011;1747;48.884;9.160;2024-03-02T17:40:02;5.43;;;2.97;;
3465;SDS011;1747;48.884;9.160;2024-03-02T17:42:32;5.65;;;2.88;;
3465;SDS011;1747;48.884;9.160;2024-03-02T17:44:58;5.75;;;3.13;;
3465;SDS011;1747;48.884;9.160;2024-03-02T17:47:27;5.07;;;3.00;;
3465;SDS011;1747;48.884;9.160;2024-03-02T17:49:54;4.63;;;3.10;;
3465;SDS011;1747;48.884;9.160;2024-03-02T17:52:21;4.53;;;3.10;;
3465;SDS011;1747;48.884;9.160;2024-03-02T17:54:48;6.10;;;3.15;;
3465;SDS011;1747;48.884;9.160;2024-03-02T17:57:15;5.75;;;3.40;;
3465;SDS011;1747;48.884;9.160;2024-03-02T17:59:42;6.82;;;3.63;;
3465;SDS011;1747;48.884;9.160;2024-03-02T18:02:09;4.32;;;3.90;;
3465;SDS011;1747;48.884;9.160;2024-03-02T18:04:38;5.75;;;4.32;;
3465;SDS011;1747;48.884;9.160;2024-03-02T18:07:07;5.20;;;4.32;;
3465;SDS011;1747;48.884;9.160;2024-03-02T18:09:33;4.80;;;3.55;;
3465;SDS011;1747;48.884;9.160;2024-03-02T18:12:01;4.43;;;3.25;;
3465;SDS011;1747;48.884;9.160;2024-03-02T18:14:29;4.13;;;3.63;;
3465;SDS011;1747;48.884;9.160;2024-03-02T18:16:57;5.38;;;3.78;;
3465;SDS011;1747;48.884;9.160;2024-03-02T18:19:24;4.65;;;4.00;;
3465;SDS011;1747;48.884;9.160;2024-03-02T18:21:55;5.10;;;3.67;;
3465;SDS011;1747;48.884;9.160;2024-03-02T18:24:22;7.93;;;3.85;;
3465;SDS011;1747;48.884;9.160;2024-03-02T18:26:53;5.70;;;4.22;;
3465;SDS011;1747;48.884;9.160;2024-03-02T18:29:19;6.88;;;4.30;;